Keesler Air Force Base Biloxi US
ICAO: KBIX
IATA: BIX
Category: Medium
Scheduled Services: No

Elevation: 33 ft
TransAlt. 18000 ft.

Airport Communications:
GULFPORT APP/DEP:124.6
ATIS:25.6
CLNC DEL:121.8
GND:121.8
AEROMEDICAL EVAC:23.66
PMSV METRO:34.46
403 WG AFRC COMD:25.28
PTD:37.22
TWR:120.75

KBIX Zoom In..

If you have problems with the map follow the link
https://www.worldairports.se/pages/airport.php?
ICAO=KBIX

Runways:

(A) RW 03 length 7630 ft width 150 ft
---- / hdg 34

(B) RW 21 length 7630 ft width 150 ft
ILS 109.70 / hdg 214

Location; KBIX
Day. 20 / Time. 20.56 Zulu
* Altimeter: 29.89
* Temperature: 19° c. 66.2°f.
* Wind from: 190° Speed 09 kn.
Dewpoint: 19° c.
Visibility: 1/2 Statute Miles.
Conditions: Fog.

KBIX 202056Z AUTO 19009KT 1/2SM R21/2800V3500FT FG VV001 19/19 A2989 RMK AO2 SLP125 T01920192 56011


Wind From 190°
Speed 09 kn.

 
 
jpsmedia.com for Web Design worldairports.se 2019   terms of use